Time;durP1;ratioP1;P1;durP2;ratioP2;P2;SDS_P1;SDS_P2;PMS_P1;PMS_P2;Temp;Humidity;BMP_temperature;BMP_pressure;BME280_temperature;BME280_humidity;BME280_pressure;Samples;Min_cycle;Max_cycle;Signal;HPM_P1;HPM_P2
2021/08/16 00:01:10;;;;;;;;;4.00;4.00;;;;;21.18;53.87;100696.56;5036510;28;45628;-61
2021/08/16 00:03:35;;;;;;;;;4.25;3.75;;;;;21.17;53.73;100696.75;5036252;28;45817;-60
2021/08/16 00:06:01;;;;;;;;;6.75;4.50;;;;;21.15;54.10;100691.63;5035529;28;68359;-61
2021/08/16 00:08:27;;;;;;;;;3.00;3.00;;;;;21.14;53.98;100691.81;5036552;28;45345;-61
2021/08/16 00:10:52;;;;;;;;;7.50;3.75;;;;;21.14;53.90;100687.28;5035513;28;70446;-61
2021/08/16 00:13:20;;;;;;;;;5.25;3.00;;;;;21.14;54.56;100687.28;5036055;28;50430;-61
2021/08/16 00:15:45;;;;;;;;;7.00;3.00;;;;;21.17;54.65;100692.22;5036326;28;46007;-61
2021/08/16 00:18:11;;;;;;;;;4.50;3.00;;;;;21.22;54.54;100698.78;5036227;28;47066;-61
2021/08/16 00:20:36;;;;;;;;;4.00;3.00;;;;;21.25;54.18;100693.03;5035475;28;64875;-61
2021/08/16 00:23:01;;;;;;;;;5.00;3.75;;;;;21.29;54.01;100689.78;5036384;28;45316;-61
2021/08/16 00:25:27;;;;;;;;;4.00;4.00;;;;;21.32;53.24;100694.72;5035487;28;68175;-61
2021/08/16 00:27:52;;;;;;;;;2.50;2.50;;;;;21.35;53.63;100685.47;5035464;28;68036;-61
2021/08/16 00:30:18;;;;;;;;;4.00;3.00;;;;;21.35;53.47;100688.97;5035381;28;68428;-61
2021/08/16 00:32:43;;;;;;;;;3.75;3.00;;;;;21.37;53.32;100679.91;5035805;28;50914;-61
2021/08/16 00:35:08;;;;;;;;;4.75;3.00;;;;;21.41;53.22;100681.16;5035832;28;56397;-62
2021/08/16 00:37:34;;;;;;;;;4.25;2.00;;;;;21.43;52.77;100682.59;5036412;28;45281;-61
2021/08/16 00:39:59;;;;;;;;;5.25;3.00;;;;;21.46;52.96;100684.03;5034138;28;66068;-61
2021/08/16 00:42:25;;;;;;;;;2.25;2.25;;;;;21.48;52.75;100682.81;5035060;28;73671;-59
2021/08/16 00:44:50;;;;;;;;;4.00;2.00;;;;;21.49;52.68;100683.59;5033904;28;69251;-62
2021/08/16 00:47:15;;;;;;;;;5.25;3.75;;;;;21.49;52.49;100681.78;5036189;28;45578;-62
2021/08/16 00:49:41;;;;;;;;;2.00;2.00;;;;;21.51;52.68;100678.88;5037358;28;67293;-61
2021/08/16 00:52:06;;;;;;;;;3.00;3.00;;;;;21.53;52.07;100679.50;5039509;28;46082;-62
2021/08/16 00:54:32;;;;;;;;;2.75;2.25;;;;;21.54;52.26;100678.47;5038166;28;45466;-61
2021/08/16 00:56:59;;;;;;;;;2.00;2.00;;;;;21.56;52.42;100678.28;5038728;28;64404;-61
2021/08/16 00:59:24;;;;;;;;;5.50;3.00;;;;;21.56;52.22;100672.94;5039591;28;45550;-61
2021/08/16 01:01:49;;;;;;;;;3.50;3.00;;;;;21.56;51.75;100671.06;5038610;28;62756;-61
2021/08/16 01:04:15;;;;;;;;;3.25;2.00;;;;;21.57;51.09;100675.38;5038109;28;70073;-61
2021/08/16 01:06:41;;;;;;;;;2.00;2.00;;;;;21.59;51.26;100667.19;5039582;28;45233;-61
2021/08/16 01:09:06;;;;;;;;;2.75;2.00;;;;;21.61;51.02;100668.59;5038493;28;67178;-61
2021/08/16 01:11:32;;;;;;;;;2.00;2.00;;;;;21.62;50.36;100666.81;5037857;28;49522;-61
2021/08/16 01:13:57;;;;;;;;;3.50;2.00;;;;;21.62;50.35;100661.44;5039189;28;45371;-59
2021/08/16 01:16:22;;;;;;;;;3.50;2.00;;;;;21.61;50.95;100651.75;5038304;28;67697;-60
2021/08/16 01:18:48;;;;;;;;;1.25;1.25;;;;;21.59;50.25;100659.16;5039259;28;45331;-60
2021/08/16 01:21:16;;;;;;;;;2.25;1.25;;;;;21.58;50.04;100657.50;5039067;28;46041;-61
2021/08/16 01:23:42;;;;;;;;;1.00;1.00;;;;;21.56;50.33;100665.72;5039056;28;45450;-61
2021/08/16 01:26:08;;;;;;;;;2.00;1.00;;;;;21.54;49.77;100654.41;5039265;28;45367;-62
2021/08/16 01:28:33;;;;;;;;;4.75;2.00;;;;;21.55;50.40;100663.28;5039215;28;45336;-61
2021/08/16 01:31:00;;;;;;;;;3.00;2.00;;;;;21.54;50.41;100665.09;5037605;28;75635;-61
2021/08/16 01:33:26;;;;;;;;;3.00;2.00;;;;;21.53;50.47;100659.97;5038872;28;45372;-60
2021/08/16 01:35:52;;;;;;;;;3.25;2.00;;;;;21.53;50.85;100674.16;5037758;28;45257;-61
2021/08/16 01:38:28;;;;;;;;;3.00;2.00;;;;;21.52;50.45;100666.34;5039038;28;45552;-60
2021/08/16 01:40:53;;;;;;;;;3.00;2.00;;;;;21.53;49.99;100674.16;5038605;28;45992;-61
2021/08/16 01:43:19;;;;;;;;;1.25;1.00;;;;;21.51;49.97;100670.88;5038223;28;61025;-61
2021/08/16 01:45:44;;;;;;;;;1.25;1.25;;;;;21.50;49.31;100677.22;5038106;28;56486;-61
2021/08/16 01:48:12;;;;;;;;;2.00;1.00;;;;;21.52;49.33;100671.69;5038757;28;45283;-61
2021/08/16 01:50:38;;;;;;;;;2.00;2.00;;;;;21.55;48.67;100676.63;5038700;28;45336;-61
2021/08/16 01:53:03;;;;;;;;;2.25;1.00;;;;;21.55;48.48;100679.31;5037357;28;70001;-60
2021/08/16 01:55:28;;;;;;;;;2.00;1.75;;;;;21.55;48.05;100672.09;5037586;28;69362;-61
2021/08/16 01:57:54;;;;;;;;;3.25;1.00;;;;;21.57;48.43;100670.03;5037511;28;70509;-60
2021/08/16 02:00:19;;;;;;;;;2.00;2.00;;;;;21.59;47.83;100667.19;5037926;28;45313;-61
2021/08/16 02:02:44;;;;;;;;;1.25;1.00;;;;;21.59;47.70;100673.34;5037324;28;68729;-62
2021/08/16 02:05:10;;;;;;;;;1.25;1.00;;;;;21.60;47.56;100666.16;5037501;28;69450;-60
2021/08/16 02:07:35;;;;;;;;;1.00;1.00;;;;;21.60;48.08;100658.94;5038440;28;45213;-59
2021/08/16 02:10:01;;;;;;;;;3.00;1.00;;;;;21.60;47.42;100664.28;5037521;28;69041;-61
2021/08/16 02:12:26;;;;;;;;;1.50;1.00;;;;;21.60;47.45;100666.16;5038246;28;45221;-60
2021/08/16 02:14:52;;;;;;;;;0.00;0.00;;;;;21.59;48.11;100661.84;5037431;28;68341;-61
2021/08/16 02:17:17;;;;;;;;;2.00;1.00;;;;;21.59;47.71;100675.19;5038433;28;45502;-61
2021/08/16 02:19:43;;;;;;;;;1.00;1.00;;;;;21.60;48.49;100666.16;5037095;28;72549;-61
2021/08/16 02:22:08;;;;;;;;;3.00;1.25;;;;;21.60;48.47;100672.31;5036249;28;45398;-61
2021/08/16 02:24:33;;;;;;;;;2.00;2.00;;;;;21.60;47.83;100668.81;5037324;28;69069;-61
2021/08/16 02:26:59;;;;;;;;;1.75;0.50;;;;;21.61;48.06;100675.81;5037496;28;60362;-61
2021/08/16 02:29:24;;;;;;;;;2.50;1.00;;;;;21.61;48.31;100667.78;5036874;28;75583;-61
2021/08/16 02:31:49;;;;;;;;;0.75;0.75;;;;;21.61;48.33;100673.16;5037058;28;67732;-61
2021/08/16 02:34:15;;;;;;;;;1.00;1.00;;;;;21.58;48.10;100666.34;5037267;28;64996;-61
2021/08/16 02:36:40;;;;;;;;;0.00;0.00;;;;;21.58;48.05;100673.56;5037126;28;67593;-61
2021/08/16 02:39:05;;;;;;;;;1.75;1.50;;;;;21.58;47.80;100666.34;5036769;28;75496;-61
2021/08/16 02:41:31;;;;;;;;;1.50;1.00;;;;;21.59;48.19;100667.97;5036791;28;70334;-62
2021/08/16 02:43:56;;;;;;;;;2.00;1.00;;;;;21.59;47.74;100670.66;5037026;28;64695;-61
2021/08/16 02:46:22;;;;;;;;;3.00;2.50;;;;;21.58;48.50;100662.88;5036837;28;69573;-61
2021/08/16 02:48:47;;;;;;;;;3.00;1.00;;;;;21.59;48.21;100664.50;5037608;28;46070;-61
2021/08/16 02:51:12;;;;;;;;;1.50;1.50;;;;;21.60;48.15;100660.81;5037555;28;46715;-60
2021/08/16 02:53:38;;;;;;;;;4.25;1.00;;;;;21.59;47.80;100656.47;5037537;28;45554;-62
2021/08/16 02:56:04;;;;;;;;;3.25;2.00;;;;;21.59;48.11;100645.78;5037635;28;45454;-61
2021/08/16 02:58:29;;;;;;;;;2.00;1.00;;;;;21.58;48.53;100652.97;5037378;28;50546;-61
2021/08/16 03:00:54;;;;;;;;;3.00;1.00;;;;;21.58;48.34;100657.50;5036768;28;67624;-61
2021/08/16 03:03:20;;;;;;;;;3.00;2.00;;;;;21.59;48.39;100646.59;5036371;28;69192;-61
2021/08/16 03:05:45;;;;;;;;;1.75;1.75;;;;;21.59;48.28;100649.28;5036741;28;66332;-61
2021/08/16 03:08:10;;;;;;;;;1.00;1.00;;;;;21.59;47.87;100656.47;5036531;28;70290;-61
2021/08/16 03:10:36;;;;;;;;;1.00;0.00;;;;;21.62;48.22;100661.44;5036025;28;49781;-62
2021/08/16 03:13:01;;;;;;;;;0.75;0.75;;;;;21.61;47.91;100652.56;5037456;28;45281;-61
2021/08/16 03:15:27;;;;;;;;;2.00;2.00;;;;;21.61;47.97;100662.44;5036391;28;64642;-61
2021/08/16 03:17:52;;;;;;;;;2.50;2.00;;;;;21.62;48.02;100666.81;5037066;28;45748;-61
2021/08/16 03:20:17;;;;;;;;;3.00;1.50;;;;;21.63;48.50;100665.78;5037089;28;45221;-60
2021/08/16 03:22:43;;;;;;;;;2.00;2.00;;;;;21.61;48.19;100665.13;5036513;28;64675;-60
2021/08/16 03:25:09;;;;;;;;;2.50;2.50;;;;;21.60;48.57;100666.16;5037203;28;45238;-62
2021/08/16 03:27:34;;;;;;;;;4.00;1.00;;;;;21.59;48.79;100661.84;5035877;28;46644;-61
2021/08/16 03:30:02;;;;;;;;;1.50;1.50;;;;;21.57;48.75;100669.22;5036079;28;70517;-61
2021/08/16 03:32:27;;;;;;;;;4.00;2.00;;;;;21.55;48.85;100666.75;5037272;28;45382;-61
2021/08/16 03:34:52;;;;;;;;;5.00;2.00;;;;;21.54;49.06;100659.75;5036728;28;48251;-61
2021/08/16 03:37:18;;;;;;;;;1.25;1.25;;;;;21.53;48.63;100657.31;5036004;28;71756;-61
2021/08/16 03:39:43;;;;;;;;;2.00;2.00;;;;;21.50;48.96;100648.66;5036724;28;49031;-61
2021/08/16 03:42:09;;;;;;;;;2.50;1.75;;;;;21.48;48.77;100650.72;5037061;28;45316;-61
2021/08/16 03:44:34;;;;;;;;;1.00;1.00;;;;;21.49;48.90;100657.72;5036323;28;60442;-60
2021/08/16 03:46:59;;;;;;;;;3.75;1.00;;;;;21.49;48.97;100648.84;5036791;28;46304;-61
2021/08/16 03:49:25;;;;;;;;;1.00;1.00;;;;;21.47;49.15;100654.41;5036725;28;45347;-61
2021/08/16 03:51:50;;;;;;;;;2.25;2.00;;;;;21.46;49.21;100654.66;5036377;28;55642;-60
2021/08/16 03:54:16;;;;;;;;;2.00;1.00;;;;;21.43;48.86;100653.19;5035648;28;70459;-61
2021/08/16 03:56:41;;;;;;;;;4.25;2.00;;;;;21.41;49.25;100657.09;5035340;28;72375;-61
2021/08/16 03:59:06;;;;;;;;;2.00;2.00;;;;;21.40;49.54;100650.94;5035631;28;72959;-61
2021/08/16 04:01:32;;;;;;;;;5.00;3.00;;;;;21.41;49.30;100649.91;5036439;28;50315;-61
2021/08/16 04:04:01;;;;;;;;;2.00;2.00;;;;;21.41;49.64;100649.09;5035818;28;56573;-61
2021/08/16 04:06:26;;;;;;;;;3.00;1.50;;;;;21.41;49.70;100655.25;5052008;28;47378;-61
2021/08/16 04:08:51;;;;;;;;;2.50;2.50;;;;;21.39;49.89;100654.63;5035669;28;64595;-61
2021/08/16 04:11:17;;;;;;;;;2.00;2.00;;;;;21.37;50.39;100645.97;5035989;28;59401;-61
2021/08/16 04:13:42;;;;;;;;;5.00;1.25;;;;;21.37;50.20;100654.00;5035477;28;66952;-60
2021/08/16 04:16:08;;;;;;;;;4.00;1.50;;;;;21.37;50.37;100648.66;5035379;28;71594;-60
2021/08/16 04:18:33;;;;;;;;;5.00;2.00;;;;;21.37;50.76;100656.69;5036239;28;45699;-61
2021/08/16 04:20:58;;;;;;;;;4.00;2.00;;;;;21.35;51.10;100661.41;5036437;28;45536;-60
2021/08/16 04:23:24;;;;;;;;;5.25;2.00;;;;;21.32;50.61;100661.81;5036045;28;45422;-61
2021/08/16 04:25:49;;;;;;;;;4.25;2.00;;;;;21.32;51.13;100669.81;5036244;28;45537;-61
2021/08/16 04:28:15;;;;;;;;;3.00;2.00;;;;;21.31;51.16;100654.81;5036056;28;45452;-61
2021/08/16 04:30:40;;;;;;;;;1.25;1.25;;;;;21.30;50.70;100666.53;5035591;28;60567;-60
2021/08/16 04:33:06;;;;;;;;;3.00;2.25;;;;;21.28;51.02;100664.09;5036171;28;45489;-61
2021/08/16 04:35:31;;;;;;;;;3.50;2.50;;;;;21.27;50.79;100670.44;5035940;28;46110;-61
2021/08/16 04:37:56;;;;;;;;;4.50;2.75;;;;;21.28;50.89;100665.91;5036146;28;45391;-61
2021/08/16 04:40:22;;;;;;;;;3.00;3.00;;;;;21.24;51.21;100664.69;5035360;28;66595;-61
2021/08/16 04:42:47;;;;;;;;;4.00;2.00;;;;;21.22;50.84;100664.06;5035331;28;66649;-61
2021/08/16 04:45:13;;;;;;;;;3.25;3.00;;;;;21.19;51.14;100671.47;5050987;28;61798;-61
2021/08/16 04:47:41;;;;;;;;;2.25;2.25;;;;;21.17;51.49;100670.84;5036034;28;45234;-61
2021/08/16 04:50:06;;;;;;;;;3.75;2.00;;;;;21.15;51.01;100666.72;5036087;28;45323;-62
2021/08/16 04:52:32;;;;;;;;;4.75;2.00;;;;;21.14;51.33;100670.44;5036085;28;45347;-60
2021/08/16 04:54:57;;;;;;;;;2.00;2.00;;;;;21.13;51.18;100668.78;5034928;28;69015;-61
2021/08/16 04:57:36;;;;;;;;;3.75;1.50;;;;;21.11;51.51;100674.34;5034853;28;73175;-62
2021/08/16 05:00:03;;;;;;;;;2.25;1.00;;;;;21.09;51.49;100673.72;5034697;28;45370;-61
2021/08/16 05:02:29;;;;;;;;;3.00;2.00;;;;;21.08;51.28;100673.91;5035421;28;45248;-61
2021/08/16 05:04:57;;;;;;;;;2.25;1.00;;;;;21.06;51.40;100690.16;5035539;28;45911;-60
2021/08/16 05:07:23;;;;;;;;;5.00;2.00;;;;;21.02;51.38;100683.56;5050339;28;45531;-61
2021/08/16 05:09:49;;;;;;;;;5.25;1.75;;;;;21.00;51.36;100673.06;5035933;28;45484;-60
2021/08/16 05:12:14;;;;;;;;;2.00;2.00;;;;;21.01;51.66;100684.59;5035880;28;45430;-62
2021/08/16 05:14:40;;;;;;;;;3.00;1.75;;;;;20.99;51.86;100684.78;5034492;28;75462;-61
2021/08/16 05:17:05;;;;;;;;;2.50;2.00;;;;;20.99;51.80;100684.78;5034639;28;71794;-61
2021/08/16 05:19:34;;;;;;;;;5.50;3.00;;;;;20.96;51.46;100687.03;5034810;28;68299;-61
2021/08/16 05:22:00;;;;;;;;;4.25;2.00;;;;;20.97;51.84;100697.50;5034403;28;45481;-61
2021/08/16 05:24:28;;;;;;;;;1.00;1.00;;;;;20.97;51.84;100694.03;5033272;28;72601;-61
2021/08/16 05:26:53;;;;;;;;;3.00;1.50;;;;;20.97;51.26;100696.69;5035551;28;45302;-61
2021/08/16 05:29:18;;;;;;;;;1.00;1.00;;;;;20.97;51.86;100696.69;5034921;28;61139;-61
2021/08/16 05:31:44;;;;;;;;;2.00;2.00;;;;;20.96;51.84;100700.38;5034549;28;67502;-61
2021/08/16 05:34:09;;;;;;;;;2.50;2.50;;;;;20.95;51.68;100701.41;5035491;28;72676;-61
2021/08/16 05:36:34;;;;;;;;;2.00;2.00;;;;;20.93;51.84;100696.25;5037705;28;72355;-61
2021/08/16 05:39:00;;;;;;;;;1.25;1.00;;;;;20.93;51.75;100696.25;5037741;28;69407;-61
2021/08/16 05:41:25;;;;;;;;;5.00;2.00;;;;;20.93;51.15;100700.78;5038101;28;66472;-61
2021/08/16 05:43:51;;;;;;;;;2.50;1.25;;;;;20.93;51.26;100700.78;5037793;28;67061;-60
2021/08/16 05:46:16;;;;;;;;;3.00;2.00;;;;;20.94;51.32;100711.25;5038571;28;45185;-61
2021/08/16 05:48:41;;;;;;;;;5.75;2.00;;;;;20.95;51.23;100720.09;5038794;28;45244;-61
2021/08/16 05:51:07;;;;;;;;;0.50;0.25;;;;;20.94;51.25;100713.94;5038456;28;45271;-61
2021/08/16 05:53:32;;;;;;;;;2.00;1.00;;;;;20.94;51.68;100713.13;5038437;28;45206;-61
2021/08/16 05:55:57;;;;;;;;;3.25;1.00;;;;;20.94;51.32;100713.94;5038376;28;45221;-61
2021/08/16 05:58:23;;;;;;;;;1.00;1.00;;;;;20.92;51.12;100716.00;5037656;28;66945;-61
2021/08/16 06:00:48;;;;;;;;;1.00;1.00;;;;;20.93;51.70;100722.97;5037654;28;65243;-61
2021/08/16 06:03:14;;;;;;;;;1.00;1.00;;;;;20.92;51.67;100723.19;5036965;28;72409;-62
2021/08/16 06:05:39;;;;;;;;;1.00;1.00;;;;;20.92;51.96;100720.50;5037747;28;54846;-61
2021/08/16 06:08:05;;;;;;;;;2.25;1.25;;;;;20.91;51.83;100730.38;5037600;28;61913;-60
2021/08/16 06:10:31;;;;;;;;;0.00;0.00;;;;;20.92;51.35;100731.19;5038294;28;45548;-61
2021/08/16 06:12:56;;;;;;;;;2.75;2.00;;;;;20.91;51.58;100725.03;5037259;28;68642;-61
2021/08/16 06:15:21;;;;;;;;;3.00;2.00;;;;;20.91;52.23;100727.72;5037753;28;58369;-61
2021/08/16 06:17:47;;;;;;;;;2.00;2.00;;;;;20.89;51.71;100719.88;5038381;28;45795;-61
2021/08/16 06:20:13;;;;;;;;;3.00;1.00;;;;;20.88;51.54;100723.56;5038261;28;45530;-61
2021/08/16 06:22:38;;;;;;;;;0.00;0.00;;;;;20.87;52.16;100729.94;5038030;28;46002;-61
2021/08/16 06:25:04;;;;;;;;;4.00;1.25;;;;;20.86;51.54;100733.63;5053515;28;45466;-60
2021/08/16 06:27:29;;;;;;;;;10.25;10.00;;;;;20.88;51.49;100746.81;5038026;28;45322;-60
2021/08/16 06:29:54;;;;;;;;;1.00;1.00;;;;;20.88;51.91;100739.59;5037355;28;49673;-61
2021/08/16 06:32:20;;;;;;;;;2.00;1.00;;;;;20.87;52.00;100740.63;5036830;28;70757;-62
2021/08/16 06:34:45;;;;;;;;;2.00;1.00;;;;;20.87;51.77;100745.97;5037850;28;45215;-61
2021/08/16 06:37:11;;;;;;;;;2.00;1.00;;;;;20.88;51.73;100750.28;5038079;28;45362;-61
2021/08/16 06:39:36;;;;;;;;;4.75;2.25;;;;;20.87;52.16;100755.84;5036788;28;64807;-62
2021/08/16 06:42:02;;;;;;;;;3.50;2.00;;;;;20.87;52.06;100758.50;5035989;28;64705;-61
2021/08/16 06:44:27;;;;;;;;;2.00;0.00;;;;;20.86;51.66;100756.88;5037558;28;45358;-61
2021/08/16 06:46:53;;;;;;;;;1.25;1.25;;;;;20.85;52.09;100752.53;5037973;28;45363;-61
2021/08/16 06:49:18;;;;;;;;;3.00;1.75;;;;;20.85;51.91;100752.53;5036351;28;45517;-60
2021/08/16 06:51:44;;;;;;;;;2.50;1.00;;;;;20.84;52.32;100756.22;5037301;28;45310;-60
2021/08/16 06:54:09;;;;;;;;;1.75;1.00;;;;;20.82;52.12;100752.94;5037047;28;53237;-62
2021/08/16 06:56:35;;;;;;;;;2.75;1.00;;;;;20.82;52.04;100753.75;5037318;28;45328;-61
2021/08/16 06:59:00;;;;;;;;;3.00;1.00;;;;;20.83;51.95;100763.41;5037628;28;45312;-61
2021/08/16 07:01:26;;;;;;;;;1.00;1.00;;;;;20.83;52.36;100762.59;5036350;28;73939;-61
2021/08/16 07:03:52;;;;;;;;;2.75;2.00;;;;;20.84;52.39;100754.38;5037256;28;45967;-62
2021/08/16 07:06:17;;;;;;;;;1.75;1.00;;;;;20.83;52.37;100754.59;5037510;28;45262;-61
2021/08/16 07:08:43;;;;;;;;;3.25;2.00;;;;;20.84;52.07;100754.38;5037209;28;49304;-61
2021/08/16 07:11:08;;;;;;;;;2.50;2.00;;;;;20.84;52.00;100759.72;5036971;28;54838;-61
2021/08/16 07:13:34;;;;;;;;;1.00;1.00;;;;;20.85;52.47;100766.72;5037014;28;45356;-61
2021/08/16 07:15:59;;;;;;;;;3.75;2.00;;;;;20.87;52.42;100761.19;5036554;28;58105;-62
2021/08/16 07:18:24;;;;;;;;;1.00;1.00;;;;;20.87;52.22;100761.19;5037405;28;45634;-61
2021/08/16 07:20:50;;;;;;;;;2.25;1.00;;;;;20.89;52.22;100769.81;5036358;28;64959;-61
2021/08/16 07:23:15;;;;;;;;;4.75;2.00;;;;;20.88;52.38;100773.50;5036164;28;69799;-61
2021/08/16 07:25:41;;;;;;;;;1.50;1.50;;;;;20.88;52.25;100762.84;5037154;28;45360;-61
2021/08/16 07:28:06;;;;;;;;;1.00;1.00;;;;;20.86;52.88;100771.03;5037527;28;45233;-62
2021/08/16 07:30:32;;;;;;;;;0.50;0.00;;;;;20.85;52.72;100774.72;5037231;28;45970;-61
2021/08/16 07:32:57;;;;;;;;;0.50;0.00;;;;;20.86;52.17;100776.38;5037001;28;45301;-60
2021/08/16 07:35:22;;;;;;;;;2.00;0.00;;;;;20.87;52.79;100775.34;5036616;28;54265;-60
2021/08/16 07:37:48;;;;;;;;;1.75;1.00;;;;;20.88;52.94;100778.84;5036621;28;55071;-61
2021/08/16 07:40:13;;;;;;;;;2.50;0.75;;;;;20.88;54.39;100782.34;5036897;28;45192;-60
2021/08/16 07:42:39;;;;;;;;;1.00;1.00;;;;;20.88;54.28;100785.00;5036863;28;45238;-61
2021/08/16 07:45:06;;;;;;;;;1.00;1.00;;;;;20.87;55.16;100786.03;5035709;28;45363;-61
2021/08/16 07:47:31;;;;;;;;;1.00;1.00;;;;;20.86;56.67;100786.25;5036747;28;45542;-61
2021/08/16 07:49:56;;;;;;;;;0.50;0.50;;;;;20.83;56.17;100784.78;5036445;28;46047;-60
2021/08/16 07:52:22;;;;;;;;;1.00;1.00;;;;;20.82;55.91;100784.97;5036377;28;45312;-61
2021/08/16 07:54:47;;;;;;;;;1.00;1.00;;;;;20.79;56.22;100780.03;5035960;28;55906;-60
2021/08/16 07:57:12;;;;;;;;;3.00;3.00;;;;;20.75;56.25;100784.91;5035232;28;68395;-60
2021/08/16 07:59:38;;;;;;;;;2.00;0.00;;;;;20.70;56.64;100785.50;5051230;28;73353;-60
2021/08/16 08:02:04;;;;;;;;;0.00;0.00;;;;;20.68;56.94;100790.22;5036664;28;45326;-61
2021/08/16 08:04:29;;;;;;;;;0.50;0.50;;;;;20.65;56.94;100795.13;5036400;28;45311;-61
2021/08/16 08:06:54;;;;;;;;;1.50;0.00;;;;;20.61;57.57;100800.03;5036611;28;45455;-61
2021/08/16 08:09:21;;;;;;;;;0.50;0.50;;;;;20.58;57.10;100798.59;5036422;28;46053;-60
2021/08/16 08:11:46;;;;;;;;;0.00;0.00;;;;;20.58;57.43;100797.75;5036443;28;45394;-61
2021/08/16 08:14:12;;;;;;;;;2.00;0.25;;;;;20.57;57.68;100804.94;5036539;28;45419;-61
2021/08/16 08:16:37;;;;;;;;;1.00;1.00;;;;;20.58;58.14;100800.41;5036673;28;45375;-61
2021/08/16 08:19:02;;;;;;;;;2.00;1.00;;;;;20.56;58.07;100803.31;5035308;28;74703;-59
2021/08/16 08:21:28;;;;;;;;;2.00;2.00;;;;;20.55;58.40;100793.63;5035575;28;64472;-60
2021/08/16 08:23:53;;;;;;;;;6.50;6.50;;;;;20.55;58.65;100801.66;5050936;28;68618;-60
2021/08/16 08:26:18;;;;;;;;;1.00;1.00;;;;;20.55;58.28;100801.66;5036364;28;45274;-60
2021/08/16 08:28:44;;;;;;;;;1.00;0.00;;;;;20.55;59.16;100804.31;5035335;28;69696;-60
2021/08/16 08:31:09;;;;;;;;;3.00;3.00;;;;;20.54;59.75;100805.34;5035280;28;68787;-60
2021/08/16 08:33:37;;;;;;;;;0.50;0.00;;;;;20.56;59.84;100805.13;5035396;28;66743;-60
2021/08/16 08:36:02;;;;;;;;;2.50;1.00;;;;;20.59;59.50;100804.75;5036213;28;45253;-61
2021/08/16 08:38:28;;;;;;;;;1.00;1.00;;;;;20.61;59.25;100806.22;5035870;28;46302;-61
2021/08/16 08:40:53;;;;;;;;;1.25;0.00;;;;;20.63;59.04;100810.53;5036071;28;45339;-61
2021/08/16 08:43:19;;;;;;;;;2.00;0.75;;;;;20.63;59.56;100810.53;5033706;28;64161;-61
2021/08/16 08:45:45;;;;;;;;;0.75;0.75;;;;;20.65;59.06;100811.16;5034089;28;69284;-61
2021/08/16 08:48:10;;;;;;;;;1.00;1.00;;;;;20.66;59.21;100818.16;5036028;28;46677;-61
2021/08/16 08:50:37;;;;;;;;;1.00;1.00;;;;;20.68;59.23;100816.91;5036173;28;45174;-62
2021/08/16 08:53:03;;;;;;;;;1.75;0.00;;;;;20.69;58.45;100817.72;5035331;28;64143;-62
2021/08/16 08:55:28;;;;;;;;;1.00;1.00;;;;;20.70;58.87;100811.38;5036063;28;45224;-61
2021/08/16 08:57:53;;;;;;;;;1.00;1.00;;;;;20.71;59.19;100818.34;5034731;28;45733;-62
2021/08/16 09:00:19;;;;;;;;;1.75;1.00;;;;;20.72;58.34;100820.00;5035633;28;45367;-61
2021/08/16 09:03:01;;;;;;;;;1.00;1.00;;;;;20.73;58.56;100818.97;5034797;28;64949;-62
2021/08/16 09:05:27;;;;;;;;;1.25;1.00;;;;;20.72;58.38;100823.50;5035942;28;45285;-61
2021/08/16 09:07:57;;;;;;;;;3.00;1.50;;;;;20.72;58.17;100812.84;5034412;28;45290;-61
2021/08/16 09:10:24;;;;;;;;;1.00;1.00;;;;;20.73;58.56;100825.16;5038799;28;45403;-61
2021/08/16 09:12:59;;;;;;;;;2.00;1.00;;;;;20.73;58.39;100829.66;5039253;28;45378;-61
2021/08/16 09:15:25;;;;;;;;;1.00;1.00;;;;;20.75;58.19;100832.97;5039339;28;45296;-61
2021/08/16 09:17:51;;;;;;;;;1.00;1.00;;;;;20.77;58.04;100838.97;5038788;28;45266;-60
2021/08/16 09:20:20;;;;;;;;;0.00;0.00;;;;;20.79;58.04;100839.59;5038637;28;45723;-61
2021/08/16 09:23:01;;;;;;;;;1.50;1.00;;;;;20.81;58.31;100840.22;5038754;28;45496;-62
2021/08/16 09:25:30;;;;;;;;;1.00;1.00;;;;;20.85;58.00;100846.00;5039237;28;45583;-61
2021/08/16 09:27:55;;;;;;;;;1.25;1.00;;;;;20.86;58.29;100832.44;5038749;28;46140;-61
2021/08/16 09:30:35;;;;;;;;;2.25;1.00;;;;;20.94;58.21;100836.78;5036807;28;71893;-62
2021/08/16 09:33:19;;;;;;;;;1.00;1.00;;;;;21.03;58.22;100835.63;5039130;28;45382;-59
2021/08/16 09:35:55;;;;;;;;;1.00;1.00;;;;;21.11;58.27;100841.81;5038889;28;45399;-62
2021/08/16 09:38:36;;;;;;;;;1.00;1.00;;;;;21.18;57.57;100846.19;5037077;28;46329;-62
2021/08/16 09:41:02;;;;;;;;;3.00;1.00;;;;;21.25;58.36;100848.03;5038549;28;45453;-59
2021/08/16 09:43:27;;;;;;;;;1.00;1.00;;;;;21.28;58.70;100850.31;5038337;28;52173;-62
2021/08/16 09:45:53;;;;;;;;;1.00;1.00;;;;;21.32;58.57;100859.56;5038815;28;45316;-61
2021/08/16 09:48:20;;;;;;;;;1.00;1.00;;;;;21.32;59.69;100857.75;5054001;28;47166;-62
2021/08/16 09:50:46;;;;;;;;;2.00;2.00;;;;;21.34;59.17;100866.38;5036834;28;45901;-62
2021/08/16 09:53:15;;;;;;;;;2.00;2.00;;;;;21.37;59.77;100867.81;5038601;28;45219;-61
2021/08/16 09:55:42;;;;;;;;;4.25;2.00;;;;;21.47;59.98;100865.59;5038627;28;45486;-61
2021/08/16 09:58:08;;;;;;;;;1.00;1.00;;;;;21.62;60.16;100868.16;5038151;28;45473;-62
2021/08/16 10:00:33;;;;;;;;;2.00;1.00;;;;;21.81;59.52;100862.22;5038433;28;45502;-63
2021/08/16 10:03:00;;;;;;;;;1.00;1.00;;;;;21.99;59.07;100861.66;5036386;28;62021;-63
2021/08/16 10:05:25;;;;;;;;;2.00;1.00;;;;;22.12;58.27;100853.63;5037960;28;57652;-62
2021/08/16 10:07:51;;;;;;;;;1.00;1.00;;;;;22.23;57.65;100850.31;5035949;28;69450;-62
2021/08/16 10:10:16;;;;;;;;;1.75;0.00;;;;;22.36;57.11;100854.84;5037912;28;47351;-61
2021/08/16 10:12:41;;;;;;;;;2.00;0.00;;;;;22.53;56.53;100854.47;5036077;28;67421;-61
2021/08/16 10:15:07;;;;;;;;;1.00;1.00;;;;;22.72;56.28;100854.66;5035994;28;64892;-62
2021/08/16 10:17:37;;;;;;;;;1.00;1.00;;;;;22.94;55.50;100850.66;5036603;28;45335;-60
2021/08/16 10:20:02;;;;;;;;;3.00;3.00;;;;;23.16;54.85;100850.38;5036492;28;45341;-62
2021/08/16 10:22:34;;;;;;;;;3.00;2.00;;;;;23.34;54.86;100855.09;5020441;28;45358;-63
2021/08/16 10:25:14;;;;;;;;;2.00;2.00;;;;;23.51;53.51;100855.41;5038085;28;45466;-62
2021/08/16 10:27:39;;;;;;;;;2.50;1.25;;;;;23.62;52.85;100851.22;5037777;28;46349;-61
2021/08/16 10:30:15;;;;;;;;;2.75;1.25;;;;;23.67;53.21;100864.00;5036558;28;45329;-62
2021/08/16 10:32:40;;;;;;;;;2.00;1.75;;;;;23.70;52.25;100875.09;5036880;28;45410;-62
2021/08/16 10:35:15;;;;;;;;;2.00;2.00;;;;;23.66;52.54;100878.44;5037066;28;60610;-62
2021/08/16 10:37:44;;;;;;;;;2.00;2.00;;;;;23.59;53.66;100883.81;5036537;28;46032;-62
2021/08/16 10:40:28;;;;;;;;;2.00;2.00;;;;;23.49;53.96;100884.28;5037643;28;45443;-62
2021/08/16 10:42:54;;;;;;;;;1.00;1.00;;;;;23.40;52.83;100881.03;5035692;28;45558;-61
2021/08/16 10:45:27;;;;;;;;;1.00;1.00;;;;;23.32;52.81;100892.00;5037667;28;45562;-62
2021/08/16 10:48:05;;;;;;;;;2.00;2.00;;;;;23.26;52.68;100884.81;5037806;28;45309;-62
2021/08/16 10:50:31;;;;;;;;;1.00;1.00;;;;;23.23;52.61;100880.72;5036251;28;45482;-60
2021/08/16 10:53:04;;;;;;;;;0.75;0.75;;;;;23.21;52.50;100888.09;5037710;28;45347;-61
2021/08/16 10:55:35;;;;;;;;;1.00;1.00;;;;;23.24;51.89;100886.88;5037619;28;45208;-60
2021/08/16 10:58:00;;;;;;;;;1.00;1.00;;;;;23.31;51.64;100889.56;5037507;28;46335;-62
2021/08/16 11:00:26;;;;;;;;;2.00;2.00;;;;;23.35;51.35;100882.69;5035840;28;52399;-61
2021/08/16 11:02:57;;;;;;;;;2.00;2.00;;;;;23.38;51.68;100898.38;5037392;28;45501;-62
2021/08/16 11:05:38;;;;;;;;;3.00;1.25;;;;;23.44;51.50;100905.56;5037428;28;45332;-62
2021/08/16 11:08:05;;;;;;;;;3.00;2.00;;;;;23.46;51.36;100903.50;5037253;28;46334;-61
2021/08/16 11:10:44;;;;;;;;;4.50;2.00;;;;;23.46;51.08;100911.53;5037036;28;46632;-62
2021/08/16 11:13:20;;;;;;;;;4.25;3.00;;;;;23.42;50.97;100915.69;5037166;28;45441;-62
2021/08/16 11:15:46;;;;;;;;;4.75;2.50;;;;;23.33;49.78;100920.47;5035945;28;45269;-61
2021/08/16 11:18:21;;;;;;;;;1.25;1.25;;;;;23.11;48.69;100920.69;5036899;28;52982;-62
2021/08/16 11:20:58;;;;;;;;;1.00;1.00;;;;;22.89;48.18;100928.16;5037215;28;45713;-61